createdAt,value
2022-08-07T08:45:41.872Z,100726.09
2022-08-07T08:48:28.584Z,100729.53
2022-08-07T08:50:45.070Z,100731.50
2022-08-07T08:53:03.377Z,100730.25
2022-08-07T08:55:21.217Z,100734.03
2022-08-07T08:57:45.215Z,100732.41
2022-08-07T09:00:05.581Z,100728.66
2022-08-07T09:02:36.697Z,100726.41
2022-08-07T09:05:00.493Z,100729.09
2022-08-07T09:07:24.345Z,100724.81
2022-08-07T09:09:57.260Z,100728.16
2022-08-07T09:12:31.886Z,100732.13
2022-08-07T09:14:50.779Z,100730.50
2022-08-07T09:17:20.370Z,100727.22
2022-08-07T09:19:53.525Z,100727.28
2022-08-07T09:24:27.576Z,100724.81
2022-08-07T09:25:17.668Z,100722.50
2022-08-07T09:28:00.563Z,100716.41
2022-08-07T09:30:08.502Z,100713.81
2022-08-07T09:32:20.995Z,100709.75
2022-08-07T09:34:44.545Z,100715.28
2022-08-07T09:37:47.752Z,100718.16
2022-08-07T09:39:57.680Z,100714.84
2022-08-07T09:42:28.380Z,100714.75
2022-08-07T09:47:25.420Z,100707.31
2022-08-07T09:47:59.435Z,100716.06
2022-08-07T09:50:20.924Z,100710.03
2022-08-07T09:52:34.926Z,100706.47
2022-08-07T09:54:49.594Z,100704.97
2022-08-07T09:57:23.433Z,100698.09
2022-08-07T10:00:00.246Z,100698.06
2022-08-07T10:02:55.309Z,100691.63
2022-08-07T10:05:58.316Z,100689.75
2022-08-07T10:08:25.400Z,100684.66
2022-08-07T10:11:16.334Z,100689.78
2022-08-07T10:13:55.436Z,100685.00
2022-08-07T10:15:54.542Z,100674.13
2022-08-07T10:18:14.612Z,100673.63
2022-08-07T10:20:41.105Z,100680.47
2022-08-07T10:24:06.480Z,100667.41
2022-08-07T10:26:35.900Z,100665.78
2022-08-07T10:28:38.409Z,100669.66
2022-08-07T10:31:21.410Z,100656.03
2022-08-07T10:34:06.060Z,100662.44
2022-08-07T10:36:45.507Z,100665.19
2022-08-07T10:38:59.889Z,100654.44
2022-08-07T10:41:46.618Z,100651.19
2022-08-07T10:44:38.528Z,100655.03
2022-08-07T10:46:57.738Z,100643.87
2022-08-07T10:49:24.486Z,100638.62
2022-08-07T10:52:12.636Z,100634.75
2022-08-07T10:54:53.109Z,100634.28
2022-08-07T10:57:25.894Z,100626.28
2022-08-07T11:00:05.151Z,100626.09
2022-08-07T11:02:33.056Z,100629.78
2022-08-07T11:04:47.527Z,100628.31
2022-08-07T11:07:24.910Z,100621.91
2022-08-07T11:10:09.158Z,100618.62
2022-08-07T11:12:32.321Z,100624.84
2022-08-07T11:14:56.664Z,100620.69
2022-08-07T11:17:23.331Z,100615.84
2022-08-07T11:20:22.462Z,100615.28
2022-08-07T11:22:46.166Z,100604.72
2022-08-07T11:25:14.784Z,100605.44
2022-08-07T11:27:33.445Z,100602.25
2022-08-07T11:30:17.992Z,100595.56
2022-08-07T11:32:34.309Z,100595.00
2022-08-07T11:35:02.748Z,100603.31
2022-08-07T11:37:17.078Z,100589.03
2022-08-07T11:39:55.767Z,100599.16
2022-08-07T11:42:18.948Z,100594.06
2022-08-07T11:44:52.683Z,100593.81
2022-08-07T11:47:12.681Z,100593.00
2022-08-07T11:49:51.130Z,100586.78
2022-08-07T11:51:46.748Z,100581.44
2022-08-07T11:54:13.815Z,100586.25
2022-08-07T11:56:35.364Z,100579.00
2022-08-07T11:59:22.085Z,100573.56
2022-08-07T12:01:59.258Z,100557.34
2022-08-07T12:04:27.763Z,100562.87
2022-08-07T12:06:51.597Z,100560.38
2022-08-07T12:09:16.825Z,100555.69
2022-08-07T12:11:43.498Z,100556.00
2022-08-07T12:14:11.308Z,100554.50
2022-08-07T12:16:30.025Z,100550.69
2022-08-07T12:18:56.243Z,100547.53
2022-08-07T12:22:35.657Z,100542.75
2022-08-07T12:24:07.673Z,100544.38
2022-08-07T12:26:46.591Z,100544.78
2022-08-07T12:29:03.668Z,100538.91
2022-08-07T12:31:22.402Z,100538.84
2022-08-07T12:33:55.891Z,100541.47
2022-08-07T12:35:57.930Z,100530.44
2022-08-07T12:38:11.205Z,100530.12
2022-08-07T12:40:46.560Z,100520.97
2022-08-07T12:42:52.672Z,100523.25
2022-08-07T12:45:04.294Z,100521.91
2022-08-07T12:47:33.738Z,100520.16
2022-08-07T12:50:04.483Z,100517.75
2022-08-07T12:52:19.196Z,100518.94
2022-08-07T12:54:43.465Z,100522.28
2022-08-07T12:57:03.477Z,100511.94
2022-08-07T12:59:22.802Z,100514.69
2022-08-07T13:01:32.144Z,100513.75
2022-08-07T13:04:04.905Z,100517.69
2022-08-07T13:06:32.542Z,100514.44
2022-08-07T13:08:48.967Z,100505.41
2022-08-07T13:11:08.588Z,100507.44
2022-08-07T13:13:48.473Z,100513.78
2022-08-07T13:16:16.067Z,100515.37
2022-08-07T13:18:26.117Z,100500.63
2022-08-07T13:20:44.614Z,100505.00
2022-08-07T13:23:09.837Z,100504.72
2022-08-07T13:25:32.082Z,100505.25
2022-08-07T13:28:11.499Z,100509.62
2022-08-07T13:30:19.016Z,100516.81
2022-08-07T13:32:46.177Z,100516.97
2022-08-07T13:35:00.141Z,100505.34
2022-08-07T13:37:23.547Z,100501.81
2022-08-07T13:40:41.716Z,100500.06
2022-08-07T13:42:27.102Z,100493.44
2022-08-07T13:44:36.800Z,100493.31
2022-08-07T13:46:49.390Z,100488.37
2022-08-07T13:48:58.719Z,100486.50
2022-08-07T13:51:27.004Z,100486.81
2022-08-07T13:53:55.205Z,100486.34
2022-08-07T13:55:56.974Z,100487.97
2022-08-07T13:58:31.671Z,100475.41
2022-08-07T14:00:50.551Z,100472.09
2022-08-07T14:02:59.582Z,100477.03
2022-08-07T14:05:09.873Z,100468.41
2022-08-07T14:07:12.615Z,100469.44
2022-08-07T14:10:12.314Z,100469.38
2022-08-07T14:12:00.311Z,100471.37
2022-08-07T14:14:08.242Z,100474.66
2022-08-07T14:16:16.207Z,100467.94
2022-08-07T14:18:29.377Z,100457.09
2022-08-07T14:20:42.729Z,100453.56
2022-08-07T14:23:11.659Z,100466.69
2022-08-07T14:25:16.661Z,100465.94
2022-08-07T14:28:10.505Z,100458.97
2022-08-07T14:30:06.413Z,100458.03
2022-08-07T14:32:15.175Z,100458.41
2022-08-07T14:34:27.176Z,100457.84
2022-08-07T14:36:33.202Z,100460.91
2022-08-07T14:38:36.562Z,100457.34
2022-08-07T14:40:40.748Z,100458.78
2022-08-07T14:43:58.119Z,100451.16
2022-08-07T14:45:48.754Z,100452.16
2022-08-07T14:47:58.979Z,100443.63
2022-08-07T14:50:06.828Z,100439.44
2022-08-07T14:52:16.821Z,100438.06
2022-08-07T14:54:34.494Z,100431.75
2022-08-07T14:56:42.398Z,100427.13
2022-08-07T14:58:55.114Z,100431.25
2022-08-07T15:00:59.621Z,100430.75
2022-08-07T15:03:25.597Z,100431.22
2022-08-07T15:05:54.799Z,100429.12
2022-08-07T15:08:12.459Z,100424.56
2022-08-07T15:10:26.164Z,100422.44
2022-08-07T15:12:36.693Z,100430.19
2022-08-07T15:14:57.855Z,100422.97
2022-08-07T15:17:11.387Z,100417.94
2022-08-07T15:19:17.381Z,100414.91
2022-08-07T15:21:45.152Z,100418.53
2022-08-07T15:25:12.891Z,100420.75
2022-08-07T15:26:20.992Z,100410.84
2022-08-07T15:31:05.005Z,100413.97
2022-08-07T15:36:00.818Z,100411.38
2022-08-07T15:38:17.630Z,100401.09
2022-08-07T15:40:33.922Z,100402.03
2022-08-07T15:42:51.926Z,100405.75
2022-08-07T15:44:55.950Z,100405.25
2022-08-07T15:47:03.392Z,100413.59
2022-08-07T15:49:15.936Z,100406.66
2022-08-07T15:51:20.351Z,100402.22
2022-08-07T15:53:56.058Z,100402.16
2022-08-07T15:56:06.038Z,100397.16
2022-08-07T15:58:14.519Z,100400.34
2022-08-07T16:00:33.387Z,100400.75
2022-08-07T16:02:46.629Z,100394.06
2022-08-07T16:04:55.023Z,100396.69
2022-08-07T16:07:04.560Z,100401.41
2022-08-07T16:09:22.587Z,100396.91
2022-08-07T16:11:28.954Z,100398.19
2022-08-07T16:13:59.300Z,100396.81
2022-08-07T16:16:48.850Z,100400.22
2022-08-07T16:18:54.867Z,100394.69
2022-08-07T16:22:01.733Z,100392.44
2022-08-07T16:24:02.611Z,100398.59
2022-08-07T16:27:00.025Z,100395.63
2022-08-07T16:30:10.237Z,100395.28
2022-08-07T16:32:02.582Z,100391.03
2022-08-07T16:34:23.592Z,100400.19
2022-08-07T16:37:01.925Z,100394.88
2022-08-07T16:39:33.636Z,100405.41
2022-08-07T16:41:56.836Z,100399.22
2022-08-07T16:44:53.899Z,100397.75
2022-08-07T16:47:15.830Z,100401.34
2022-08-07T16:50:27.403Z,100400.22
2022-08-07T16:52:52.516Z,100395.03
2022-08-07T16:55:13.075Z,100397.97
2022-08-07T16:58:02.232Z,100394.66
2022-08-07T17:00:02.717Z,100399.31
2022-08-07T17:02:09.055Z,100401.16
2022-08-07T17:04:57.482Z,100407.38
2022-08-07T17:07:18.585Z,100395.06
2022-08-07T17:10:07.971Z,100404.88
2022-08-07T17:12:04.161Z,100399.75
2022-08-07T17:14:19.244Z,100403.25
2022-08-07T17:16:33.597Z,100406.97
2022-08-07T17:18:52.114Z,100402.75
2022-08-07T17:20:56.439Z,100406.41
2022-08-07T17:23:16.762Z,100412.19
2022-08-07T17:25:45.694Z,100406.97
2022-08-07T17:28:13.793Z,100400.44
2022-08-07T17:30:27.388Z,100403.06
2022-08-07T17:32:36.766Z,100406.37
2022-08-07T17:35:51.077Z,100402.84
2022-08-07T17:38:06.511Z,100404.38
2022-08-07T17:40:30.591Z,100411.66
2022-08-07T17:42:59.277Z,100408.12
2022-08-07T17:44:59.601Z,100414.56
2022-08-07T17:47:38.703Z,100415.06
2022-08-07T17:49:56.979Z,100420.25
2022-08-07T17:52:13.879Z,100425.47
2022-08-07T17:54:40.112Z,100423.16
2022-08-07T17:56:59.605Z,100429.16
2022-08-07T17:59:17.151Z,100430.59
2022-08-07T18:01:34.812Z,100427.75
2022-08-07T18:04:04.574Z,100428.34
2022-08-07T18:06:16.553Z,100431.66
2022-08-07T18:08:25.959Z,100440.31
2022-08-07T18:12:08.144Z,100449.69
2022-08-07T18:13:23.153Z,100451.13
2022-08-07T18:15:32.865Z,100455.47
2022-08-07T18:18:47.318Z,100460.87
2022-08-07T18:21:08.887Z,100462.75
2022-08-07T18:22:54.267Z,100458.81
2022-08-07T18:25:23.854Z,100469.38
2022-08-07T18:27:42.607Z,100468.34
2022-08-07T18:30:31.662Z,100471.22
2022-08-07T18:33:15.173Z,100474.34
2022-08-07T18:35:51.763Z,100473.50
2022-08-07T18:38:55.691Z,100477.87
2022-08-07T18:41:44.919Z,100469.56
2022-08-07T18:44:10.321Z,100480.94
2022-08-07T18:46:25.158Z,100486.09
2022-08-07T18:50:35.235Z,100486.31
2022-08-07T18:52:33.854Z,100496.78
2022-08-07T18:54:50.839Z,100498.81
2022-08-07T18:57:29.835Z,100500.28
2022-08-07T18:59:47.591Z,100499.88
2022-08-07T19:02:18.549Z,100507.50
2022-08-07T19:05:10.656Z,100507.44
2022-08-07T19:07:34.586Z,100509.09
2022-08-07T19:10:21.859Z,100513.78
2022-08-07T19:12:58.256Z,100513.12
2022-08-07T19:16:05.131Z,100511.66
2022-08-07T19:18:34.692Z,100522.91
2022-08-07T19:21:08.502Z,100531.38
2022-08-07T19:23:58.150Z,100538.44
2022-08-07T19:26:25.369Z,100539.09
2022-08-07T19:29:02.892Z,100544.06
2022-08-07T19:31:04.153Z,100543.13
2022-08-07T19:33:10.275Z,100550.31
2022-08-07T19:35:23.550Z,100544.47
2022-08-07T19:37:55.245Z,100555.47
2022-08-07T19:40:03.171Z,100559.88
2022-08-07T19:42:34.849Z,100559.44
2022-08-07T19:44:41.163Z,100564.44
2022-08-07T19:46:55.665Z,100570.00
2022-08-07T19:49:06.871Z,100577.03
2022-08-07T19:51:20.396Z,100570.00
2022-08-07T19:54:33.334Z,100579.00
2022-08-07T19:56:15.507Z,100580.69
2022-08-07T19:58:38.451Z,100574.88
2022-08-07T20:00:57.804Z,100574.69
2022-08-07T20:03:33.441Z,100579.28
2022-08-07T20:05:59.952Z,100583.16
2022-08-07T20:07:59.872Z,100587.38
2022-08-07T20:10:35.306Z,100590.81
2022-08-07T20:12:34.326Z,100589.47
2022-08-07T20:14:54.192Z,100589.69
2022-08-07T20:17:05.838Z,100593.22
2022-08-07T20:19:11.979Z,100587.75
2022-08-07T20:21:22.101Z,100589.47
2022-08-07T20:23:43.092Z,100597.16
2022-08-07T20:25:50.937Z,100594.59
2022-08-07T20:28:03.297Z,100603.78
2022-08-07T20:30:11.570Z,100613.34
2022-08-07T20:32:23.035Z,100607.31
2022-08-07T20:34:49.266Z,100609.87
2022-08-07T20:36:55.187Z,100604.53
2022-08-07T20:39:00.485Z,100607.41
2022-08-07T20:41:09.542Z,100607.38
2022-08-07T20:43:19.465Z,100612.84
2022-08-07T20:45:32.621Z,100609.59
2022-08-07T20:47:56.404Z,100614.00
2022-08-07T20:50:02.761Z,100613.16
2022-08-07T20:52:16.692Z,100614.00
2022-08-07T20:54:30.230Z,100613.06
2022-08-07T20:56:46.240Z,100612.56
2022-08-07T20:58:53.330Z,100605.22
2022-08-07T21:01:04.578Z,100611.81
2022-08-07T21:03:08.975Z,100620.22
2022-08-07T21:05:18.362Z,100623.56
2022-08-07T21:07:42.678Z,100623.44
2022-08-07T21:10:00.162Z,100620.41
2022-08-07T21:12:08.235Z,100623.81
2022-08-07T21:14:32.740Z,100626.41
2022-08-07T21:16:56.387Z,100630.69
2022-08-07T21:19:00.224Z,100627.37
2022-08-07T21:21:04.283Z,100625.31
2022-08-07T21:23:26.310Z,100629.38
2022-08-07T21:25:58.530Z,100632.22
2022-08-07T21:28:09.669Z,100636.56
2022-08-07T21:30:18.977Z,100640.59
2022-08-07T21:32:42.970Z,100639.47
2022-08-07T21:34:59.172Z,100646.22
2022-08-07T21:37:21.530Z,100654.69
2022-08-07T21:39:45.549Z,100654.53
2022-08-07T21:42:37.541Z,100652.56
2022-08-07T21:44:51.093Z,100651.41
2022-08-07T21:47:12.382Z,100650.34
2022-08-07T21:49:25.670Z,100652.12
2022-08-07T21:51:32.044Z,100657.13
2022-08-07T21:53:52.328Z,100654.03
2022-08-07T21:56:40.288Z,100665.47
2022-08-07T21:59:04.744Z,100669.84
